createdAt,value
2022-10-31T06:46:51.544Z,12.80
2022-10-31T06:49:18.277Z,12.80
2022-10-31T06:51:49.023Z,12.80
2022-10-31T06:54:15.902Z,12.90
2022-10-31T06:56:42.707Z,12.80
2022-10-31T06:59:16.822Z,12.90
2022-10-31T07:01:45.978Z,12.90
2022-10-31T07:04:14.734Z,12.90
2022-10-31T07:06:51.933Z,13.00
2022-10-31T07:09:20.764Z,13.00
2022-10-31T07:11:49.156Z,13.00
2022-10-31T07:14:18.597Z,13.10
2022-10-31T07:16:48.711Z,13.10
2022-10-31T07:19:15.383Z,13.10
2022-10-31T07:21:42.016Z,13.20
2022-10-31T07:24:08.762Z,13.20
2022-10-31T07:26:35.529Z,13.20
2022-10-31T07:29:02.318Z,13.20
2022-10-31T07:31:29.425Z,13.30
2022-10-31T07:33:56.244Z,13.40
2022-10-31T07:36:23.471Z,13.50
2022-10-31T07:38:50.918Z,13.50
2022-10-31T07:41:18.127Z,13.40
2022-10-31T07:43:44.957Z,13.50
2022-10-31T07:46:12.487Z,13.50
2022-10-31T07:48:39.158Z,13.60
2022-10-31T07:51:07.897Z,13.70
2022-10-31T07:53:34.724Z,13.70
2022-10-31T07:56:01.517Z,13.80
2022-10-31T07:58:28.240Z,13.90
2022-10-31T08:00:55.125Z,13.90
2022-10-31T08:03:21.975Z,14.00
2022-10-31T08:05:49.278Z,14.00
2022-10-31T08:08:16.539Z,14.10
2022-10-31T08:10:43.446Z,14.20
2022-10-31T08:13:15.069Z,14.20
2022-10-31T08:15:43.196Z,14.30
2022-10-31T08:18:15.773Z,14.30
2022-10-31T08:20:44.014Z,14.40
2022-10-31T08:23:12.399Z,14.40
2022-10-31T08:25:39.513Z,14.50
2022-10-31T08:28:07.657Z,14.60
2022-10-31T08:30:37.066Z,14.50
2022-10-31T08:33:15.586Z,14.60
2022-10-31T08:35:43.206Z,14.70
2022-10-31T08:38:12.326Z,14.80
2022-10-31T08:40:39.491Z,14.80
2022-10-31T08:43:17.201Z,14.80
2022-10-31T08:45:45.669Z,14.90
2022-10-31T08:48:15.207Z,15.00
2022-10-31T08:50:42.643Z,15.00
2022-10-31T08:53:12.906Z,15.00
2022-10-31T08:55:40.668Z,15.00
2022-10-31T08:58:10.675Z,15.10
2022-10-31T09:00:37.695Z,15.10
2022-10-31T09:03:07.075Z,15.20
2022-10-31T09:05:34.364Z,15.30
2022-10-31T09:08:03.799Z,15.30
2022-10-31T09:10:31.627Z,15.40
2022-10-31T09:13:00.049Z,15.50
2022-10-31T09:15:28.762Z,15.50
2022-10-31T09:17:55.852Z,15.50
2022-10-31T09:20:23.319Z,15.60
2022-10-31T09:22:57.583Z,15.70
2022-10-31T09:25:24.307Z,15.70
2022-10-31T09:27:51.025Z,15.80
2022-10-31T09:30:17.717Z,15.80
2022-10-31T09:32:44.427Z,15.80
2022-10-31T09:37:42.724Z,15.90
2022-10-31T09:40:10.017Z,15.90
2022-10-31T09:42:48.744Z,16.00
2022-10-31T09:45:24.344Z,16.00
2022-10-31T09:48:21.720Z,16.10
2022-10-31T09:50:54.075Z,16.10
2022-10-31T09:53:48.389Z,16.10
2022-10-31T09:56:20.811Z,16.20
2022-10-31T09:58:51.045Z,16.30
2022-10-31T10:01:47.216Z,16.30
2022-10-31T10:04:42.022Z,16.40
2022-10-31T10:07:50.537Z,16.40
2022-10-31T10:10:45.421Z,16.40
2022-10-31T10:13:40.425Z,16.50
2022-10-31T10:16:34.366Z,16.50
2022-10-31T10:20:00.330Z,16.50
2022-10-31T10:23:01.290Z,16.50
2022-10-31T10:25:50.696Z,16.50
2022-10-31T10:28:26.174Z,16.50
2022-10-31T10:31:04.557Z,16.50
2022-10-31T10:34:03.918Z,16.50
2022-10-31T10:36:35.482Z,16.50
2022-10-31T10:39:06.376Z,16.40
2022-10-31T10:41:34.788Z,16.60
2022-10-31T10:44:02.219Z,16.50
2022-10-31T10:47:06.069Z,16.60
2022-10-31T10:49:36.628Z,16.70
2022-10-31T10:55:12.568Z,16.80
2022-10-31T10:58:09.840Z,16.90
2022-10-31T11:00:41.244Z,17.00
2022-10-31T11:03:08.470Z,17.00
2022-10-31T11:05:51.022Z,17.00
2022-10-31T11:08:28.865Z,17.10
2022-10-31T11:44:27.673Z,17.70
2022-10-31T11:46:59.782Z,17.70
2022-10-31T11:49:40.580Z,17.60
2022-10-31T11:52:17.030Z,17.60
2022-10-31T11:55:24.504Z,17.50
2022-10-31T12:11:09.665Z,17.30
2022-10-31T12:13:52.673Z,17.30
2022-10-31T12:35:06.932Z,17.10
2022-10-31T12:37:42.913Z,17.10
2022-10-31T12:40:12.735Z,17.10
2022-10-31T12:42:42.525Z,17.10
2022-10-31T12:45:26.431Z,17.10
2022-10-31T12:48:23.409Z,17.20
2022-10-31T12:50:56.840Z,17.20
2022-10-31T12:53:36.368Z,17.30
2022-10-31T12:56:17.854Z,17.30
2022-10-31T12:59:00.325Z,17.40
2022-10-31T13:01:40.267Z,17.40
2022-10-31T13:04:21.462Z,17.50
2022-10-31T13:06:52.018Z,17.60
2022-10-31T13:09:23.577Z,17.70
2022-10-31T13:11:56.389Z,17.80
2022-10-31T13:14:26.429Z,17.90
2022-10-31T13:16:55.196Z,17.90
2022-10-31T13:19:37.015Z,18.00
2022-10-31T13:22:21.959Z,18.10
2022-10-31T13:25:03.385Z,18.10
2022-10-31T13:27:44.132Z,18.10
2022-10-31T13:30:17.840Z,18.10
2022-10-31T13:33:03.184Z,18.10
2022-10-31T13:35:45.385Z,18.00
2022-10-31T13:38:14.880Z,18.00
2022-10-31T13:40:47.367Z,17.90
2022-10-31T13:43:24.783Z,18.00
2022-10-31T13:45:54.077Z,18.00
2022-10-31T13:48:29.837Z,18.00
2022-10-31T13:51:09.319Z,18.00
2022-10-31T13:53:38.808Z,18.00
2022-10-31T13:56:19.075Z,18.10
2022-10-31T13:59:16.016Z,18.20
2022-10-31T14:01:58.441Z,18.20
2022-10-31T14:04:29.092Z,18.20
2022-10-31T14:07:00.258Z,18.20
2022-10-31T14:09:34.845Z,18.20
2022-10-31T14:12:06.403Z,18.30
2022-10-31T14:14:47.791Z,18.40
2022-10-31T14:17:21.342Z,18.40
2022-10-31T14:20:21.315Z,18.40
2022-10-31T14:22:48.063Z,18.30
2022-10-31T14:25:34.714Z,18.20
2022-10-31T14:28:04.834Z,18.20
2022-10-31T14:30:31.799Z,18.20
2022-10-31T14:33:20.636Z,18.20
2022-10-31T14:36:10.479Z,18.10
2022-10-31T14:38:45.861Z,18.10
2022-10-31T14:41:33.165Z,18.00
2022-10-31T14:44:30.728Z,18.00
2022-10-31T14:47:02.813Z,18.00
2022-10-31T14:49:40.539Z,17.90
2022-10-31T14:52:09.691Z,17.90
2022-10-31T14:54:40.899Z,17.80
2022-10-31T14:57:28.618Z,17.80
2022-10-31T15:00:21.230Z,17.70
2022-10-31T15:02:50.814Z,17.70
2022-10-31T15:05:18.681Z,17.60
2022-10-31T15:07:59.532Z,17.50
2022-10-31T15:10:33.260Z,17.50
2022-10-31T15:13:19.695Z,17.40
2022-10-31T15:15:59.589Z,17.30
2022-10-31T15:18:35.669Z,17.20
2022-10-31T15:21:04.694Z,17.20
2022-10-31T15:23:34.063Z,17.10
2022-10-31T15:26:02.608Z,17.10
2022-10-31T15:28:29.778Z,17.00
2022-10-31T15:31:02.055Z,17.00
2022-10-31T15:33:48.154Z,17.00
2022-10-31T15:36:28.483Z,16.90
2022-10-31T15:38:58.707Z,17.00
2022-10-31T15:41:39.892Z,16.90
2022-10-31T15:44:16.587Z,16.90
2022-10-31T15:46:43.620Z,16.80
2022-10-31T15:49:45.995Z,16.80
2022-10-31T15:52:18.366Z,16.70
2022-10-31T15:54:56.817Z,16.60
2022-10-31T15:57:24.767Z,16.50
2022-10-31T15:59:52.453Z,16.50
2022-10-31T16:02:22.692Z,16.40
2022-10-31T16:04:50.940Z,16.40
2022-10-31T16:07:23.334Z,16.40
2022-10-31T16:10:26.551Z,16.20
2022-10-31T16:12:54.137Z,16.10
2022-10-31T16:15:22.334Z,16.10
2022-10-31T16:17:51.815Z,16.10
2022-10-31T16:20:23.682Z,16.00
2022-10-31T16:22:52.421Z,16.00
2022-10-31T16:25:39.874Z,16.00
2022-10-31T16:28:19.595Z,15.90
2022-10-31T16:30:48.817Z,15.80
2022-10-31T16:33:32.120Z,15.80
2022-10-31T16:36:15.771Z,15.70
2022-10-31T16:38:47.403Z,15.70
2022-10-31T16:41:14.118Z,15.60
2022-10-31T16:43:40.880Z,15.60
2022-10-31T16:48:42.096Z,15.60
2022-10-31T16:51:09.823Z,15.50
2022-10-31T16:53:39.723Z,15.40
2022-10-31T16:56:17.297Z,15.50
2022-10-31T16:58:44.995Z,15.30
2022-10-31T17:01:13.900Z,15.30
2022-10-31T17:03:41.369Z,15.30
2022-10-31T17:06:13.114Z,15.30
2022-10-31T17:08:39.821Z,15.30
2022-10-31T17:11:08.460Z,15.20
2022-10-31T17:13:35.428Z,15.30
2022-10-31T17:16:03.253Z,15.20
2022-10-31T17:18:30.921Z,15.10
2022-10-31T17:21:02.847Z,15.20
2022-10-31T17:23:29.947Z,15.10
2022-10-31T17:25:57.094Z,15.00
2022-10-31T17:28:25.088Z,15.00
2022-10-31T17:30:51.875Z,15.00
2022-10-31T17:33:18.640Z,15.00
2022-10-31T17:35:45.465Z,14.90
2022-10-31T17:38:13.205Z,14.90
2022-10-31T17:40:43.969Z,14.90
2022-10-31T17:43:11.706Z,14.80
2022-10-31T17:45:41.103Z,14.80
2022-10-31T17:48:11.019Z,14.80
2022-10-31T17:50:38.083Z,14.80
2022-10-31T17:53:05.128Z,14.70
2022-10-31T17:55:36.146Z,14.60
2022-10-31T17:58:06.131Z,14.70
2022-10-31T18:00:34.854Z,14.60
2022-10-31T18:03:03.996Z,14.60
2022-10-31T18:05:31.348Z,14.60
2022-10-31T18:08:02.426Z,14.50
2022-10-31T18:10:30.677Z,14.50
2022-10-31T18:12:57.477Z,14.50
2022-10-31T18:15:25.013Z,14.50
2022-10-31T18:17:51.895Z,14.40
2022-10-31T18:20:18.982Z,14.40
2022-10-31T18:22:45.963Z,14.30
2022-10-31T18:25:12.772Z,14.30
2022-10-31T18:27:39.610Z,14.30
2022-10-31T18:30:07.281Z,14.20
2022-10-31T18:32:35.080Z,14.20
2022-10-31T18:35:01.886Z,14.20
2022-10-31T18:37:28.734Z,14.20
2022-10-31T18:39:55.876Z,14.20
2022-10-31T18:42:22.885Z,14.30
2022-10-31T18:44:49.869Z,14.20
2022-10-31T18:47:19.216Z,14.30
2022-10-31T18:49:46.359Z,14.30
2022-10-31T18:52:14.001Z,14.20
2022-10-31T18:54:41.463Z,14.30
2022-10-31T18:57:09.353Z,14.30
2022-10-31T18:59:36.385Z,14.30
2022-10-31T19:02:03.443Z,14.30
2022-10-31T19:04:30.628Z,14.30
2022-10-31T19:06:57.673Z,14.30
2022-10-31T19:09:24.763Z,14.30
2022-10-31T19:11:51.706Z,14.30
2022-10-31T19:14:18.520Z,14.30
2022-10-31T19:16:45.431Z,14.30
2022-10-31T19:19:12.348Z,14.30
2022-10-31T19:21:39.102Z,14.30
2022-10-31T19:24:06.192Z,14.20
2022-10-31T19:26:33.879Z,14.20
2022-10-31T19:29:00.889Z,14.20
2022-10-31T19:31:28.737Z,14.20
2022-10-31T19:33:55.476Z,14.20
2022-10-31T19:36:22.675Z,14.20
2022-10-31T19:38:50.847Z,14.20
2022-10-31T19:41:23.624Z,14.10
2022-10-31T19:43:50.836Z,14.10
2022-10-31T19:46:22.687Z,14.20
2022-10-31T19:49:01.211Z,14.10
2022-10-31T19:51:28.460Z,14.10
2022-10-31T19:53:55.168Z,14.10
2022-10-31T19:56:24.643Z,14.00
2022-10-31T19:58:51.530Z,14.00
2022-10-31T20:01:20.728Z,13.90
2022-10-31T20:03:48.597Z,13.90
2022-10-31T20:06:30.908Z,13.90
2022-10-31T20:08:58.042Z,13.90
2022-10-31T20:11:26.743Z,13.90
2022-10-31T20:14:00.311Z,13.80
2022-10-31T20:16:28.234Z,13.80
2022-10-31T20:18:55.775Z,13.90
2022-10-31T20:21:25.107Z,13.80
2022-10-31T20:24:02.773Z,13.80
2022-10-31T20:26:30.842Z,13.80
2022-10-31T20:28:59.064Z,13.80
2022-10-31T20:31:28.880Z,13.80
2022-10-31T20:33:55.982Z,13.90
2022-10-31T20:36:24.142Z,13.80
2022-10-31T20:38:52.410Z,13.70
2022-10-31T20:41:19.389Z,13.70
2022-10-31T20:43:46.946Z,13.70
2022-10-31T20:46:19.849Z,13.70
2022-10-31T20:48:47.482Z,13.70
2022-10-31T20:51:18.180Z,13.70
2022-10-31T20:53:45.388Z,13.70
2022-10-31T20:56:15.170Z,13.70
2022-10-31T20:58:43.637Z,13.70
2022-10-31T21:01:22.497Z,13.80
2022-10-31T21:03:50.043Z,13.70
2022-10-31T21:06:18.198Z,13.70
